Goose Prairie, Washington
Current Conditions -  °F | °C
As of 7:53 AM on Monday 26 Jan 2015 (Local Time) from KELN Reporting Station
Moderate Fog Moderate Fog  
Wind Chill: 27°   Ceiling: 200
Heat Index: 32°   Visibility: 0.25mi
Dew Point: 29°   Wind: 5mph
Humidity: 88%   Direction: 120°ESE
Pressure: 30.06"   Gusts: NA
Location:  46.89°N, 121.27°W
Report Text: KELN 261553Z AUTO 12004KT 1/4SM FG VV002 00/M02 A3006 RMK AO2 SLP194 I1001 T00001017
Loading
Personal Weather Stations






























Interactive Weather Map New forecast layout! Learn more

10-Day Weather Forecast

Advertisements
Track Severe Weather on mobile